Time;durP1;ratioP1;P1;durP2;ratioP2;P2;SDS_P1;SDS_P2;PMS_P1;PMS_P2;Temp;Humidity;BMP_temperature;BMP_pressure;BME280_temperature;BME280_humidity;BME280_pressure;Samples;Min_cycle;Max_cycle;Signal;HPM_P1;HPM_P2
2022/08/09 00:01:25;;;;;;;9.07;5.53;;;;;;;;;;5089831;28;20428;-74
2022/08/09 00:03:51;;;;;;;8.20;5.63;;;;;;;;;;5086451;28;20347;-76
2022/08/09 00:06:17;;;;;;;8.93;5.45;;;;;;;;;;5078680;28;20389;-75
2022/08/09 00:08:47;;;;;;;8.10;6.00;;;;;;;;;;5072457;28;20454;-74
2022/08/09 00:11:13;;;;;;;7.80;5.68;;;;;;;;;;5063488;28;20027;-69
2022/08/09 00:13:39;;;;;;;9.80;5.72;;;;;;;;;;5086689;28;20020;-72
2022/08/09 00:16:06;;;;;;;7.18;5.65;;;;;;;;;;5073397;28;20043;-69
2022/08/09 00:18:39;;;;;;;9.18;6.03;;;;;;;;;;5075002;28;20066;-76
2022/08/09 00:21:07;;;;;;;7.07;5.82;;;;;;;;;;5076208;28;20012;-75
2022/08/09 00:23:34;;;;;;;9.35;5.80;;;;;;;;;;5081711;28;20431;-69
2022/08/09 00:26:01;;;;;;;7.75;5.97;;;;;;;;;;5072253;28;20067;-75
2022/08/09 00:28:27;;;;;;;9.07;5.75;;;;;;;;;;5075068;28;20861;-68
2022/08/09 00:30:55;;;;;;;8.95;5.47;;;;;;;;;;5087695;28;20055;-74
2022/08/09 00:33:22;;;;;;;9.27;5.90;;;;;;;;;;5089041;28;20039;-74
2022/08/09 00:35:48;;;;;;;7.05;5.63;;;;;;;;;;5091518;28;20020;-74
2022/08/09 00:38:14;;;;;;;8.70;5.30;;;;;;;;;;5076732;28;20070;-76
2022/08/09 00:40:44;;;;;;;8.00;5.95;;;;;;;;;;5072564;28;20024;-69
2022/08/09 00:43:10;;;;;;;7.93;5.20;;;;;;;;;;5078597;28;20028;-73
2022/08/09 00:45:36;;;;;;;8.48;5.63;;;;;;;;;;5079935;28;20020;-74
2022/08/09 00:48:04;;;;;;;8.00;5.60;;;;;;;;;;5080637;28;20021;-75
2022/08/09 00:50:30;;;;;;;7.63;5.50;;;;;;;;;;5074758;28;20092;-74
2022/08/09 00:52:58;;;;;;;10.50;5.25;;;;;;;;;;5081922;28;20020;-75
2022/08/09 00:55:24;;;;;;;8.73;5.30;;;;;;;;;;5074099;28;20390;-75
2022/08/09 00:57:51;;;;;;;14.65;5.20;;;;;;;;;;5081135;28;20028;-76
2022/08/09 01:00:18;;;;;;;12.27;5.00;;;;;;;;;;5075878;28;20119;-69
2022/08/09 01:02:49;;;;;;;8.32;5.00;;;;;;;;;;5073183;28;20086;-70
2022/08/09 01:05:23;;;;;;;7.63;5.13;;;;;;;;;;5081303;28;20023;-71
2022/08/09 01:07:49;;;;;;;13.52;5.22;;;;;;;;;;5089168;28;20078;-72
2022/08/09 01:10:20;;;;;;;12.85;5.18;;;;;;;;;;5075602;28;20545;-75
2022/08/09 01:13:00;;;;;;;7.30;5.30;;;;;;;;;;5083313;28;20024;-75
2022/08/09 01:15:28;;;;;;;8.10;5.00;;;;;;;;;;5082213;28;20021;-68
2022/08/09 01:17:57;;;;;;;10.13;5.15;;;;;;;;;;5075512;28;20096;-75
2022/08/09 01:20:43;;;;;;;6.90;4.50;;;;;;;;;;5074882;28;20059;-75
2022/08/09 01:23:28;;;;;;;7.13;4.80;;;;;;;;;;5060017;28;20024;-74
2022/08/09 01:25:55;;;;;;;8.82;5.13;;;;;;;;;;5075460;28;20031;-72
2022/08/09 01:28:21;;;;;;;6.25;5.03;;;;;;;;;;5078845;28;20012;-69
2022/08/09 01:30:48;;;;;;;6.35;4.82;;;;;;;;;;5085496;28;20053;-75
2022/08/09 01:33:15;;;;;;;7.15;5.10;;;;;;;;;;5074940;28;20074;-75
2022/08/09 01:36:00;;;;;;;7.03;4.97;;;;;;;;;;5091528;28;20040;-69
2022/08/09 01:38:28;;;;;;;8.32;4.95;;;;;;;;;;5079720;28;20389;-76
2022/08/09 01:41:15;;;;;;;6.22;4.93;;;;;;;;;;5084816;28;20446;-76
2022/08/09 01:43:43;;;;;;;6.70;4.80;;;;;;;;;;5083508;28;20496;-69
2022/08/09 01:46:09;;;;;;;9.65;5.00;;;;;;;;;;5085008;28;20033;-69
2022/08/09 01:48:46;;;;;;;11.23;5.10;;;;;;;;;;5081215;28;20103;-75
2022/08/09 01:51:13;;;;;;;8.18;4.70;;;;;;;;;;5084068;28;20036;-74
2022/08/09 01:53:39;;;;;;;8.77;5.00;;;;;;;;;;5089970;28;20060;-74
2022/08/09 01:56:08;;;;;;;10.18;5.20;;;;;;;;;;5075493;28;20363;-75
2022/08/09 01:58:35;;;;;;;6.32;5.25;;;;;;;;;;5086509;28;20485;-75
2022/08/09 02:01:02;;;;;;;9.80;5.80;;;;;;;;;;5081994;28;20043;-75
2022/08/09 02:03:29;;;;;;;8.13;5.55;;;;;;;;;;5074880;28;20024;-73
2022/08/09 02:05:58;;;;;;;8.05;5.35;;;;;;;;;;5077992;28;20036;-76
2022/08/09 02:08:24;;;;;;;12.00;5.88;;;;;;;;;;5074599;28;20020;-73
2022/08/09 02:10:51;;;;;;;9.15;5.95;;;;;;;;;;5077626;28;20437;-74
2022/08/09 02:13:19;;;;;;;10.25;5.63;;;;;;;;;;5074403;28;20071;-75
2022/08/09 02:15:48;;;;;;;7.63;5.25;;;;;;;;;;5074377;28;20020;-75
2022/08/09 02:18:18;;;;;;;8.63;5.45;;;;;;;;;;5075777;28;20023;-75
2022/08/09 02:20:46;;;;;;;7.80;5.60;;;;;;;;;;5074633;28;20027;-76
2022/08/09 02:23:12;;;;;;;7.57;5.82;;;;;;;;;;5085954;28;20021;-76
2022/08/09 02:25:40;;;;;;;9.52;5.63;;;;;;;;;;5074259;28;20032;-70
2022/08/09 02:28:10;;;;;;;8.00;5.80;;;;;;;;;;5088601;28;20031;-76
2022/08/09 02:30:44;;;;;;;11.07;5.68;;;;;;;;;;5069739;28;20048;-76
2022/08/09 02:33:13;;;;;;;7.72;5.25;;;;;;;;;;5055508;28;20033;-72
2022/08/09 02:35:40;;;;;;;6.80;5.57;;;;;;;;;;5061006;28;20031;-73
2022/08/09 02:38:09;;;;;;;14.90;5.50;;;;;;;;;;5060249;28;20366;-69
2022/08/09 02:40:36;;;;;;;7.05;5.30;;;;;;;;;;5053868;28;20067;-68
2022/08/09 02:43:03;;;;;;;6.95;5.28;;;;;;;;;;5064880;28;20028;-75
2022/08/09 02:45:30;;;;;;;8.90;5.75;;;;;;;;;;5054852;28;20025;-74
2022/08/09 02:48:00;;;;;;;10.45;5.50;;;;;;;;;;5056659;28;20497;-75
2022/08/09 02:50:28;;;;;;;10.00;5.40;;;;;;;;;;5065785;28;20047;-68
2022/08/09 02:53:00;;;;;;;6.53;5.00;;;;;;;;;;5057631;28;20104;-76
2022/08/09 02:55:28;;;;;;;8.30;5.10;;;;;;;;;;5067794;28;20140;-75
2022/08/09 02:57:54;;;;;;;9.60;5.00;;;;;;;;;;5056989;28;20032;-76
2022/08/09 03:00:22;;;;;;;7.07;5.20;;;;;;;;;;5058240;28;20470;-74
2022/08/09 03:03:08;;;;;;;6.63;4.75;;;;;;;;;;5055498;28;20106;-75
2022/08/09 03:05:34;;;;;;;11.25;5.10;;;;;;;;;;5073296;28;20514;-76
2022/08/09 03:08:01;;;;;;;7.55;5.13;;;;;;;;;;5054255;28;20021;-74
2022/08/09 03:10:27;;;;;;;6.53;4.53;;;;;;;;;;5068446;28;20470;-75
2022/08/09 03:12:54;;;;;;;5.30;4.72;;;;;;;;;;5062273;28;20031;-69
2022/08/09 03:15:21;;;;;;;6.93;4.85;;;;;;;;;;5060754;28;20051;-72
2022/08/09 03:17:47;;;;;;;9.50;5.18;;;;;;;;;;5052088;28;20029;-73
2022/08/09 03:20:14;;;;;;;8.07;5.45;;;;;;;;;;5053089;28;20033;-74
2022/08/09 03:22:43;;;;;;;7.22;5.13;;;;;;;;;;5079118;28;20032;-74
2022/08/09 03:25:10;;;;;;;6.85;4.85;;;;;;;;;;5055708;28;20055;-71
2022/08/09 03:27:37;;;;;;;6.60;4.53;;;;;;;;;;5053169;28;20036;-74
2022/08/09 03:30:17;;;;;;;9.68;4.60;;;;;;;;;;5080103;28;20044;-75
2022/08/09 03:32:45;;;;;;;6.82;4.20;;;;;;;;;;5082257;28;20028;-73
2022/08/09 03:35:11;;;;;;;6.60;4.70;;;;;;;;;;5073286;28;20099;-74
2022/08/09 03:37:38;;;;;;;10.82;4.63;;;;;;;;;;5071447;28;20017;-69
2022/08/09 03:40:05;;;;;;;6.97;4.80;;;;;;;;;;5072785;28;20036;-73
2022/08/09 03:42:31;;;;;;;6.75;4.47;;;;;;;;;;5079320;28;20028;-70
2022/08/09 03:44:58;;;;;;;5.93;4.60;;;;;;;;;;5078152;28;20085;-74
2022/08/09 03:47:24;;;;;;;7.70;4.80;;;;;;;;;;5079537;28;20046;-73
2022/08/09 03:49:51;;;;;;;6.38;4.75;;;;;;;;;;5084378;28;20033;-75
2022/08/09 03:52:19;;;;;;;5.63;4.70;;;;;;;;;;5084142;28;20382;-74
2022/08/09 03:54:47;;;;;;;6.70;4.45;;;;;;;;;;5079109;28;20024;-75
2022/08/09 03:57:14;;;;;;;7.35;4.60;;;;;;;;;;5095423;28;20027;-74
2022/08/09 03:59:41;;;;;;;8.40;4.88;;;;;;;;;;5083128;28;20028;-75
2022/08/09 04:02:07;;;;;;;9.10;4.88;;;;;;;;;;5075978;28;20454;-74
2022/08/09 04:04:34;;;;;;;7.13;4.60;;;;;;;;;;5067622;28;20012;-75
2022/08/09 04:07:05;;;;;;;10.18;4.65;;;;;;;;;;5077997;28;20028;-76
2022/08/09 04:09:31;;;;;;;6.43;4.60;;;;;;;;;;5076431;28;20071;-75
2022/08/09 04:12:17;;;;;;;8.25;5.00;;;;;;;;;;5079662;28;20067;-73
2022/08/09 04:14:45;;;;;;;6.25;4.65;;;;;;;;;;5092828;28;20043;-75
2022/08/09 04:17:11;;;;;;;7.82;4.80;;;;;;;;;;5079559;28;20027;-75
2022/08/09 04:19:37;;;;;;;7.28;4.45;;;;;;;;;;5091665;28;20507;-75
2022/08/09 04:22:04;;;;;;;10.32;4.80;;;;;;;;;;5081880;28;20043;-75
2022/08/09 04:24:30;;;;;;;5.78;4.60;;;;;;;;;;5072082;28;20070;-74
2022/08/09 04:26:57;;;;;;;9.68;4.65;;;;;;;;;;5072244;28;20021;-74
2022/08/09 04:29:24;;;;;;;6.55;4.75;;;;;;;;;;5066552;28;20094;-74
2022/08/09 04:31:52;;;;;;;8.48;4.80;;;;;;;;;;5082140;28;20024;-75
2022/08/09 04:34:19;;;;;;;7.25;5.22;;;;;;;;;;5072284;28;20074;-74
2022/08/09 04:36:46;;;;;;;10.25;5.10;;;;;;;;;;5074623;28;20024;-67
2022/08/09 04:39:12;;;;;;;8.23;4.93;;;;;;;;;;5083846;28;20474;-74
2022/08/09 04:41:38;;;;;;;7.65;4.82;;;;;;;;;;5075653;28;20036;-74
2022/08/09 04:44:04;;;;;;;9.55;4.43;;;;;;;;;;5076358;28;20074;-69
2022/08/09 04:46:31;;;;;;;7.40;4.55;;;;;;;;;;5075992;28;20074;-71
2022/08/09 04:48:57;;;;;;;5.40;4.63;;;;;;;;;;5076107;28;20562;-75
2022/08/09 04:51:24;;;;;;;15.18;5.10;;;;;;;;;;5075841;28;20086;-71
2022/08/09 04:53:50;;;;;;;6.18;4.68;;;;;;;;;;5076099;28;20474;-74
2022/08/09 04:56:16;;;;;;;8.48;5.18;;;;;;;;;;5083213;28;20399;-70
2022/08/09 04:58:42;;;;;;;7.47;5.10;;;;;;;;;;5075782;28;20514;-68
2022/08/09 05:01:08;;;;;;;10.75;5.55;;;;;;;;;;5075861;28;20115;-75
2022/08/09 05:03:34;;;;;;;7.57;5.30;;;;;;;;;;5075652;28;20493;-75
2022/08/09 05:06:00;;;;;;;11.18;5.15;;;;;;;;;;5089981;28;20028;-69
2022/08/09 05:08:26;;;;;;;9.30;5.50;;;;;;;;;;5086946;28;20024;-73
2022/08/09 05:10:53;;;;;;;7.95;5.10;;;;;;;;;;5086917;28;20051;-68
2022/08/09 05:13:19;;;;;;;9.15;5.75;;;;;;;;;;5091491;28;20027;-77
2022/08/09 05:15:45;;;;;;;9.68;5.50;;;;;;;;;;5086746;28;20032;-76
2022/08/09 05:18:11;;;;;;;7.18;5.20;;;;;;;;;;5091511;28;20016;-75
2022/08/09 05:20:37;;;;;;;7.07;4.93;;;;;;;;;;5086605;28;20025;-75
2022/08/09 05:23:03;;;;;;;8.07;4.63;;;;;;;;;;5089679;28;20107;-75
2022/08/09 05:25:29;;;;;;;9.75;6.13;;;;;;;;;;5072826;28;20070;-70
2022/08/09 05:27:56;;;;;;;5.97;5.13;;;;;;;;;;5087460;28;20082;-70
2022/08/09 05:30:22;;;;;;;10.88;5.82;;;;;;;;;;5093354;28;20112;-74
2022/08/09 05:32:49;;;;;;;11.50;5.82;;;;;;;;;;5101348;28;20505;-75
2022/08/09 05:35:16;;;;;;;13.20;6.22;;;;;;;;;;5095308;28;20032;-77
2022/08/09 05:37:42;;;;;;;13.38;5.93;;;;;;;;;;5095770;28;20427;-79
2022/08/09 05:40:09;;;;;;;11.40;5.55;;;;;;;;;;5095283;28;20024;-73
2022/08/09 05:42:35;;;;;;;10.82;6.15;;;;;;;;;;5072720;28;20020;-77
2022/08/09 05:45:01;;;;;;;10.50;6.13;;;;;;;;;;5079478;28;20024;-76
2022/08/09 05:47:27;;;;;;;15.70;6.28;;;;;;;;;;5094739;28;20020;-78
2022/08/09 05:49:54;;;;;;;9.43;6.38;;;;;;;;;;5077045;28;20028;-78
2022/08/09 05:52:33;;;;;;;9.73;5.80;;;;;;;;;;5077279;28;20031;-70
2022/08/09 05:54:59;;;;;;;10.88;6.13;;;;;;;;;;5076778;28;20047;-71
2022/08/09 05:57:25;;;;;;;12.68;6.88;;;;;;;;;;5094686;28;20027;-69
2022/08/09 05:59:51;;;;;;;13.10;7.40;;;;;;;;;;5102889;28;20492;-72
2022/08/09 06:02:17;;;;;;;14.90;6.40;;;;;;;;;;5090634;28;20117;-71
2022/08/09 06:05:00;;;;;;;24.90;8.07;;;;;;;;;;5095531;28;20381;-73
2022/08/09 06:07:47;;;;;;;14.88;6.90;;;;;;;;;;5077106;28;20039;-71
2022/08/09 06:10:16;;;;;;;9.95;6.13;;;;;;;;;;5093527;28;20068;-73
2022/08/09 06:12:42;;;;;;;11.68;6.57;;;;;;;;;;5074606;28;20495;-69
2022/08/09 06:15:14;;;;;;;10.43;6.22;;;;;;;;;;5073149;28;20036;-69
2022/08/09 06:17:43;;;;;;;11.60;7.07;;;;;;;;;;5073749;28;20020;-76
2022/08/09 06:20:09;;;;;;;7.90;6.53;;;;;;;;;;5080588;28;20108;-75
2022/08/09 06:22:35;;;;;;;8.25;6.30;;;;;;;;;;5076551;28;20028;-77
2022/08/09 06:25:01;;;;;;;9.85;6.40;;;;;;;;;;5086036;28;20073;-77
2022/08/09 06:27:27;;;;;;;10.30;6.60;;;;;;;;;;5068410;28;20039;-79
2022/08/09 06:29:53;;;;;;;9.13;6.65;;;;;;;;;;5108430;28;20044;-76
2022/08/09 06:32:19;;;;;;;10.63;6.00;;;;;;;;;;5092259;28;20111;-75
2022/08/09 06:34:45;;;;;;;10.68;6.88;;;;;;;;;;5088748;28;20073;-78
2022/08/09 06:37:12;;;;;;;9.50;6.22;;;;;;;;;;5093440;28;20020;-75
2022/08/09 06:39:38;;;;;;;14.85;6.97;;;;;;;;;;5093453;28;20073;-75
2022/08/09 06:42:04;;;;;;;11.32;6.18;;;;;;;;;;5092335;28;20035;-75
2022/08/09 06:44:30;;;;;;;9.65;6.65;;;;;;;;;;5091239;28;20081;-76
2022/08/09 06:46:56;;;;;;;12.13;6.47;;;;;;;;;;5071743;28;20063;-75
2022/08/09 06:49:22;;;;;;;11.30;7.50;;;;;;;;;;5076716;28;20024;-74
2022/08/09 06:51:49;;;;;;;10.00;6.30;;;;;;;;;;5089726;28;20097;-72
2022/08/09 06:54:15;;;;;;;13.00;6.82;;;;;;;;;;5088762;28;20086;-73
2022/08/09 06:56:41;;;;;;;11.43;7.00;;;;;;;;;;5090076;28;20024;-75
2022/08/09 06:59:07;;;;;;;11.75;6.78;;;;;;;;;;5089739;28;20471;-80
2022/08/09 07:01:33;;;;;;;10.70;6.57;;;;;;;;;;5092906;28;20027;-80
2022/08/09 07:03:59;;;;;;;12.43;6.78;;;;;;;;;;5086726;28;20035;-78
2022/08/09 07:06:25;;;;;;;14.85;7.32;;;;;;;;;;5079325;28;20024;-75
2022/08/09 07:08:51;;;;;;;13.32;6.35;;;;;;;;;;5090222;28;20043;-77
2022/08/09 07:11:17;;;;;;;15.85;7.00;;;;;;;;;;5092789;28;20071;-76
2022/08/09 07:13:43;;;;;;;9.52;6.63;;;;;;;;;;5085454;28;20046;-75
2022/08/09 07:16:09;;;;;;;10.05;6.78;;;;;;;;;;5077739;28;20083;-74
2022/08/09 07:18:37;;;;;;;11.38;7.15;;;;;;;;;;5091516;28;20020;-74
2022/08/09 07:21:03;;;;;;;7.75;6.38;;;;;;;;;;5083882;28;20074;-74
2022/08/09 07:23:29;;;;;;;8.32;6.60;;;;;;;;;;5092484;28;20035;-75
2022/08/09 07:25:55;;;;;;;13.75;7.25;;;;;;;;;;5091743;28;20058;-80
2022/08/09 07:28:22;;;;;;;8.55;7.07;;;;;;;;;;5088551;28;20032;-71
2022/08/09 07:30:49;;;;;;;11.15;7.18;;;;;;;;;;5087887;28;20478;-74
2022/08/09 07:33:15;;;;;;;8.57;6.88;;;;;;;;;;5091941;28;20016;-75
2022/08/09 07:35:41;;;;;;;12.18;7.53;;;;;;;;;;5091354;28;20035;-78
2022/08/09 07:38:07;;;;;;;14.15;7.18;;;;;;;;;;5086111;28;20029;-75
2022/08/09 07:40:33;;;;;;;10.52;6.68;;;;;;;;;;5090393;28;20106;-73
2022/08/09 07:43:00;;;;;;;10.95;6.97;;;;;;;;;;5091442;28;20032;-74
2022/08/09 07:45:28;;;;;;;8.55;6.65;;;;;;;;;;5086591;28;20024;-74
2022/08/09 07:47:55;;;;;;;11.65;7.68;;;;;;;;;;5086499;28;20028;-78
2022/08/09 07:50:21;;;;;;;11.93;7.00;;;;;;;;;;5106182;28;20481;-74
2022/08/09 07:52:48;;;;;;;9.98;7.47;;;;;;;;;;5090204;28;20024;-72
2022/08/09 07:55:14;;;;;;;10.40;7.38;;;;;;;;;;5075746;28;20488;-73
2022/08/09 07:57:40;;;;;;;10.27;7.53;;;;;;;;;;5091865;28;20095;-74
2022/08/09 08:00:07;;;;;;;10.73;7.13;;;;;;;;;;5087277;28;20117;-75
2022/08/09 08:02:33;;;;;;;10.63;7.07;;;;;;;;;;5091754;28;20023;-77
2022/08/09 08:04:59;;;;;;;9.52;6.85;;;;;;;;;;5089484;28;20066;-77
2022/08/09 08:07:25;;;;;;;13.05;6.88;;;;;;;;;;5086354;28;20457;-74
2022/08/09 08:09:51;;;;;;;9.30;6.55;;;;;;;;;;5083999;28;20457;-74
2022/08/09 08:12:18;;;;;;;10.35;7.93;;;;;;;;;;5089591;28;20024;-74
2022/08/09 08:14:44;;;;;;;9.00;7.40;;;;;;;;;;5082367;28;20025;-75
2022/08/09 08:17:10;;;;;;;9.07;7.53;;;;;;;;;;5091611;28;20047;-73
2022/08/09 08:19:36;;;;;;;12.82;7.03;;;;;;;;;;5087356;28;20481;-74
2022/08/09 08:22:03;;;;;;;12.82;7.07;;;;;;;;;;5088886;28;20027;-73
2022/08/09 08:24:29;;;;;;;10.77;7.28;;;;;;;;;;5090884;28;20067;-75
2022/08/09 08:26:56;;;;;;;10.07;7.53;;;;;;;;;;5089835;28;20016;-74
2022/08/09 08:29:22;;;;;;;11.77;7.47;;;;;;;;;;5087419;28;20042;-73
2022/08/09 08:31:49;;;;;;;10.35;7.28;;;;;;;;;;5084931;28;20400;-74
2022/08/09 08:34:15;;;;;;;10.48;7.70;;;;;;;;;;5085460;28;20022;-73
2022/08/09 08:36:41;;;;;;;9.15;6.97;;;;;;;;;;5078072;28;20177;-74
2022/08/09 08:39:10;;;;;;;13.10;7.28;;;;;;;;;;5085105;28;20036;-69
2022/08/09 08:41:37;;;;;;;8.95;7.22;;;;;;;;;;5069737;28;20112;-69
2022/08/09 08:44:03;;;;;;;9.25;6.90;;;;;;;;;;5073152;28;20118;-70
2022/08/09 08:46:34;;;;;;;11.15;8.00;;;;;;;;;;5091482;28;20088;-70
2022/08/09 08:49:00;;;;;;;16.17;7.68;;;;;;;;;;5090849;28;20082;-70
2022/08/09 08:51:34;;;;;;;13.23;8.02;;;;;;;;;;5090943;28;20063;-69
2022/08/09 08:54:07;;;;;;;8.98;7.07;;;;;;;;;;5073368;28;20040;-73
2022/08/09 08:56:38;;;;;;;14.05;8.27;;;;;;;;;;5073518;28;20043;-71
2022/08/09 08:59:08;;;;;;;11.18;7.28;;;;;;;;;;5091579;28;20020;-68
2022/08/09 09:01:39;;;;;;;12.18;8.07;;;;;;;;;;5089913;28;20016;-69
2022/08/09 09:04:09;;;;;;;11.80;7.80;;;;;;;;;;5085750;28;20020;-68
2022/08/09 09:06:36;;;;;;;14.05;8.63;;;;;;;;;;5079690;28;20082;-70
2022/08/09 09:09:04;;;;;;;9.15;7.78;;;;;;;;;;5084285;28;20097;-69
2022/08/09 09:11:30;;;;;;;10.23;7.93;;;;;;;;;;5086727;28;20028;-76
2022/08/09 09:14:00;;;;;;;8.70;7.28;;;;;;;;;;5091616;28;20016;-76
2022/08/09 09:16:26;;;;;;;14.00;8.13;;;;;;;;;;5072600;28;20055;-82
2022/08/09 09:18:55;;;;;;;14.05;7.90;;;;;;;;;;5086717;28;20497;-73
2022/08/09 09:21:21;;;;;;;11.48;7.95;;;;;;;;;;5089841;28;20438;-73
2022/08/09 09:23:47;;;;;;;10.70;7.85;;;;;;;;;;5075435;28;20321;-73
2022/08/09 09:26:14;;;;;;;11.30;7.38;;;;;;;;;;5094754;28;20020;-73
2022/08/09 09:28:47;;;;;;;10.07;7.85;;;;;;;;;;5098215;28;20020;-75
2022/08/09 09:31:18;;;;;;;9.35;7.35;;;;;;;;;;5090598;28;20508;-76
2022/08/09 09:33:44;;;;;;;13.07;8.27;;;;;;;;;;5095510;28;20020;-76
2022/08/09 09:36:11;;;;;;;9.18;7.38;;;;;;;;;;5095483;28;20359;-75
2022/08/09 09:38:40;;;;;;;11.07;7.60;;;;;;;;;;5085665;28;20378;-77
2022/08/09 09:41:07;;;;;;;10.13;7.95;;;;;;;;;;5086057;28;20020;-75
2022/08/09 09:43:33;;;;;;;12.20;7.68;;;;;;;;;;5086530;28;20020;-77
2022/08/09 09:46:01;;;;;;;11.60;8.02;;;;;;;;;;5092358;28;20028;-76
2022/08/09 09:48:28;;;;;;;12.25;8.38;;;;;;;;;;5074991;28;20492;-73
2022/08/09 09:50:54;;;;;;;12.73;7.63;;;;;;;;;;5085363;28;20045;-77
2022/08/09 09:53:26;;;;;;;12.05;7.75;;;;;;;;;;5100329;28;20115;-76
2022/08/09 09:56:02;;;;;;;11.75;7.80;;;;;;;;;;5077165;28;20034;-76
2022/08/09 09:58:45;;;;;;;11.18;7.95;;;;;;;;;;5087043;28;20385;-75
2022/08/09 10:01:21;;;;;;;9.90;7.65;;;;;;;;;;5101539;28;20023;-75
2022/08/09 10:03:51;;;;;;;14.32;7.70;;;;;;;;;;5078300;28;20032;-75
2022/08/09 10:06:18;;;;;;;11.50;7.53;;;;;;;;;;5074515;28;20028;-76
2022/08/09 10:08:45;;;;;;;12.05;7.90;;;;;;;;;;5084729;28;20487;-75
2022/08/09 10:11:19;;;;;;;10.40;8.40;;;;;;;;;;5095962;28;20081;-74
2022/08/09 10:13:46;;;;;;;8.93;7.80;;;;;;;;;;5082730;28;20036;-84
2022/08/09 10:16:12;;;;;;;10.10;7.40;;;;;;;;;;5073894;28;21269;-75
2022/08/09 10:18:38;;;;;;;11.00;8.10;;;;;;;;;;5099809;28;20039;-75
2022/08/09 10:21:05;;;;;;;11.85;7.43;;;;;;;;;;5094621;28;20027;-75
2022/08/09 10:23:32;;;;;;;15.88;8.73;;;;;;;;;;5094575;28;20571;-76
2022/08/09 10:26:00;;;;;;;9.68;7.10;;;;;;;;;;5094692;28;20070;-79
2022/08/09 10:28:26;;;;;;;10.18;7.07;;;;;;;;;;5076372;28;20024;-78
2022/08/09 10:30:54;;;;;;;11.25;7.40;;;;;;;;;;5094352;28;20091;-69
2022/08/09 10:33:20;;;;;;;10.73;7.20;;;;;;;;;;5075277;28;20024;-69
2022/08/09 10:35:47;;;;;;;9.20;7.30;;;;;;;;;;5095921;28;20036;-75
2022/08/09 10:38:13;;;;;;;9.90;7.60;;;;;;;;;;5094324;28;20019;-74
2022/08/09 10:40:39;;;;;;;10.57;7.10;;;;;;;;;;5094026;28;20035;-70
2022/08/09 10:43:06;;;;;;;9.88;6.82;;;;;;;;;;5074173;28;20024;-71
2022/08/09 10:45:32;;;;;;;10.30;7.30;;;;;;;;;;5093079;28;20512;-77
2022/08/09 10:48:19;;;;;;;12.65;7.55;;;;;;;;;;5071760;28;20060;-83
2022/08/09 10:53:59;;;;;;;15.27;7.90;;;;;;;;;;5033732;28;20092;-84
2022/08/09 10:56:27;;;;;;;10.60;7.20;;;;;;;;;;5030181;28;20164;-78
2022/08/09 10:58:54;;;;;;;18.00;7.57;;;;;;;;;;5031645;28;20364;-76
2022/08/09 11:01:32;;;;;;;11.30;6.90;;;;;;;;;;5032433;28;20045;-77
2022/08/09 11:04:10;;;;;;;10.15;7.45;;;;;;;;;;5032674;28;20033;-75
2022/08/09 11:06:36;;;;;;;10.70;6.60;;;;;;;;;;5029837;28;20075;-73
2022/08/09 11:09:06;;;;;;;9.40;6.88;;;;;;;;;;5030218;28;20426;-76
2022/08/09 11:11:56;;;;;;;7.68;6.30;;;;;;;;;;5029854;28;20036;-79
2022/08/09 11:14:47;;;;;;;9.65;6.88;;;;;;;;;;5026888;28;20612;-76
2022/08/09 11:17:13;;;;;;;16.00;7.30;;;;;;;;;;5029572;28;20040;-77
2022/08/09 11:19:53;;;;;;;11.27;7.18;;;;;;;;;;5030099;28;20037;-83
2022/08/09 11:22:19;;;;;;;10.32;7.10;;;;;;;;;;5011677;28;20029;-80
2022/08/09 11:24:57;;;;;;;13.35;7.00;;;;;;;;;;5020753;28;20029;-77
2022/08/09 11:27:35;;;;;;;14.73;7.55;;;;;;;;;;5045247;28;20036;-78
2022/08/09 11:30:07;;;;;;;13.38;7.15;;;;;;;;;;5084044;28;20544;-73
2022/08/09 11:32:42;;;;;;;11.07;7.05;;;;;;;;;;5090885;28;20107;-76
2022/08/09 11:35:12;;;;;;;13.13;7.65;;;;;;;;;;5077756;28;20060;-89
2022/08/09 11:37:40;;;;;;;9.75;7.35;;;;;;;;;;5071363;28;20031;-75
2022/08/09 11:40:07;;;;;;;13.55;7.65;;;;;;;;;;5090093;28;20020;-72
2022/08/09 11:42:47;;;;;;;9.80;6.65;;;;;;;;;;5076008;28;20039;-69
2022/08/09 11:45:19;;;;;;;9.13;7.20;;;;;;;;;;5083869;28;20047;-77
2022/08/09 11:47:46;;;;;;;10.93;6.50;;;;;;;;;;5084832;28;20031;-75
2022/08/09 11:50:12;;;;;;;12.55;7.30;;;;;;;;;;5081350;28;20101;-78
2022/08/09 11:52:57;;;;;;;9.95;6.90;;;;;;;;;;5091563;28;20488;-79
2022/08/09 11:55:32;;;;;;;9.57;6.70;;;;;;;;;;5092910;28;20043;-74
2022/08/09 11:57:59;;;;;;;9.00;7.28;;;;;;;;;;5080282;28;20039;-75
2022/08/09 12:00:26;;;;;;;9.40;6.80;;;;;;;;;;5084412;28;20099;-78
2022/08/09 12:02:53;;;;;;;14.90;7.03;;;;;;;;;;5080066;28;20064;-81
2022/08/09 12:05:19;;;;;;;15.60;7.30;;;;;;;;;;5090719;28;20019;-68
2022/08/09 12:07:46;;;;;;;10.25;6.90;;;;;;;;;;5089924;28;20032;-72
2022/08/09 12:10:12;;;;;;;14.82;7.50;;;;;;;;;;5088977;28;20039;-75
2022/08/09 12:12:45;;;;;;;12.23;7.00;;;;;;;;;;5075277;28;20025;-78
2022/08/09 12:15:22;;;;;;;10.98;6.85;;;;;;;;;;5080221;28;20029;-79
2022/08/09 12:17:49;;;;;;;11.00;6.93;;;;;;;;;;5068453;28;20043;-82
2022/08/09 12:20:16;;;;;;;11.77;7.05;;;;;;;;;;5067120;28;20032;-78
2022/08/09 12:22:42;;;;;;;9.18;6.47;;;;;;;;;;5063048;28;20037;-76
2022/08/09 12:25:12;;;;;;;9.32;6.70;;;;;;;;;;5090213;28;20559;-81
2022/08/09 12:27:38;;;;;;;8.82;6.65;;;;;;;;;;5086260;28;20021;-86
2022/08/09 12:30:06;;;;;;;11.10;7.22;;;;;;;;;;5081059;28;20127;-76
2022/08/09 12:32:32;;;;;;;13.43;7.45;;;;;;;;;;5087267;28;20012;-75
2022/08/09 12:35:02;;;;;;;13.85;7.30;;;;;;;;;;5089198;28;20020;-79
2022/08/09 12:37:35;;;;;;;10.18;6.80;;;;;;;;;;5099295;28;20050;-76
2022/08/09 12:40:15;;;;;;;9.25;6.53;;;;;;;;;;5070412;28;20036;-71
2022/08/09 12:42:47;;;;;;;12.65;6.47;;;;;;;;;;5104352;28;20037;-70
2022/08/09 12:45:13;;;;;;;11.65;6.88;;;;;;;;;;5085604;28;20020;-70
2022/08/09 12:47:39;;;;;;;15.45;7.65;;;;;;;;;;5083854;28;20076;-72
2022/08/09 12:50:17;;;;;;;10.40;7.28;;;;;;;;;;5086198;28;20535;-73
2022/08/09 12:52:53;;;;;;;10.68;6.90;;;;;;;;;;5091430;28;20547;-71
2022/08/09 12:55:30;;;;;;;9.93;7.10;;;;;;;;;;5090640;28;20035;-72
2022/08/09 12:57:56;;;;;;;10.10;7.20;;;;;;;;;;5090680;28;20034;-77
2022/08/09 13:00:22;;;;;;;11.52;7.15;;;;;;;;;;5076652;28;20023;-78
2022/08/09 13:02:49;;;;;;;10.50;7.50;;;;;;;;;;5088192;28;20058;-89
2022/08/09 13:05:15;;;;;;;12.25;7.60;;;;;;;;;;5092999;28;20119;-84
2022/08/09 13:07:41;;;;;;;11.18;7.90;;;;;;;;;;5084202;28;20024;-90
2022/08/09 13:10:07;;;;;;;11.95;7.35;;;;;;;;;;5078791;28;20039;-90
2022/08/09 13:12:33;;;;;;;11.30;7.30;;;;;;;;;;5085610;28;20024;-91
2022/08/09 13:15:06;;;;;;;11.82;7.60;;;;;;;;;;5077388;28;20024;-84
2022/08/09 13:17:32;;;;;;;10.43;6.80;;;;;;;;;;5083623;28;20390;-91
2022/08/09 13:19:58;;;;;;;11.10;7.07;;;;;;;;;;5077181;28;20265;-91
2022/08/09 13:22:26;;;;;;;9.10;6.93;;;;;;;;;;5087246;28;20024;-79
2022/08/09 13:24:55;;;;;;;11.63;7.55;;;;;;;;;;5077107;28;20064;-78
2022/08/09 13:27:28;;;;;;;10.68;7.25;;;;;;;;;;5079429;28;20034;-72
2022/08/09 13:29:59;;;;;;;14.48;7.53;;;;;;;;;;5086645;28;20140;-70
2022/08/09 13:32:25;;;;;;;13.43;7.53;;;;;;;;;;5076435;28;20539;-77
2022/08/09 13:34:51;;;;;;;12.32;7.60;;;;;;;;;;5076672;28;20525;-91
2022/08/09 13:37:17;;;;;;;9.68;6.80;;;;;;;;;;5076678;28;20020;-91
2022/08/09 13:39:43;;;;;;;9.98;7.63;;;;;;;;;;5095399;28;20028;-90
2022/08/09 13:42:11;;;;;;;11.23;7.53;;;;;;;;;;5086400;28;20021;-76
2022/08/09 13:44:37;;;;;;;13.27;7.50;;;;;;;;;;5086322;28;20021;-90
2022/08/09 13:47:06;;;;;;;10.55;7.82;;;;;;;;;;5076807;28;20135;-91
2022/08/09 13:49:33;;;;;;;9.88;7.50;;;;;;;;;;5079272;28;20036;-77
2022/08/09 13:51:59;;;;;;;9.68;7.28;;;;;;;;;;5077905;28;20043;-91
2022/08/09 13:54:25;;;;;;;8.57;7.07;;;;;;;;;;5096685;28;20024;-78
2022/08/09 13:56:51;;;;;;;10.77;7.45;;;;;;;;;;5081900;28;20028;-91
2022/08/09 13:59:17;;;;;;;12.95;7.57;;;;;;;;;;5079851;28;20028;-69
2022/08/09 14:01:43;;;;;;;11.02;7.00;;;;;;;;;;5083763;28;20044;-91
2022/08/09 14:04:09;;;;;;;10.23;6.80;;;;;;;;;;5076105;28;20059;-86
2022/08/09 14:06:35;;;;;;;11.68;7.30;;;;;;;;;;5077432;28;20111;-82
2022/08/09 14:09:01;;;;;;;9.82;7.47;;;;;;;;;;5083741;28;20028;-79
2022/08/09 14:11:28;;;;;;;9.95;6.70;;;;;;;;;;5089782;28;20127;-77
2022/08/09 14:13:54;;;;;;;10.95;6.60;;;;;;;;;;5084652;28;20028;-90
2022/08/09 14:16:21;;;;;;;12.25;7.45;;;;;;;;;;5076440;28;20103;-74
2022/08/09 14:18:50;;;;;;;11.63;6.68;;;;;;;;;;5076035;28;20043;-82
2022/08/09 14:21:20;;;;;;;9.48;6.63;;;;;;;;;;5083381;28;20459;-82
2022/08/09 14:23:46;;;;;;;17.27;7.20;;;;;;;;;;5071185;28;20024;-91
2022/08/09 14:26:17;;;;;;;9.25;7.00;;;;;;;;;;5058584;28;20035;-90
2022/08/09 14:28:43;;;;;;;8.80;6.70;;;;;;;;;;5069463;28;20028;-90
2022/08/09 14:31:09;;;;;;;11.95;6.97;;;;;;;;;;5071696;28;20102;-75
2022/08/09 14:33:35;;;;;;;9.75;6.90;;;;;;;;;;5067024;28;20028;-88
2022/08/09 14:36:01;;;;;;;12.98;6.82;;;;;;;;;;5064327;28;20115;-83
2022/08/09 14:38:27;;;;;;;9.18;6.75;;;;;;;;;;5067597;28;20017;-90
2022/08/09 14:40:53;;;;;;;11.35;6.88;;;;;;;;;;5055738;28;20025;-91
2022/08/09 14:43:19;;;;;;;9.25;6.82;;;;;;;;;;5055198;28;20091;-86
2022/08/09 14:45:45;;;;;;;10.90;7.22;;;;;;;;;;5058203;28;20064;-83